createdAt,value
2022-10-13T00:00:06.897Z,99072.88
2022-10-13T00:02:33.421Z,99073.06
2022-10-13T00:04:59.862Z,99068.81
2022-10-13T00:07:26.359Z,99072.34
2022-10-13T00:09:52.830Z,99067.25
2022-10-13T00:12:19.711Z,99060.97
2022-10-13T00:14:46.405Z,99058.03
2022-10-13T00:17:12.866Z,99059.97
2022-10-13T00:19:39.327Z,99063.34
2022-10-13T00:22:05.744Z,99067.78
2022-10-13T00:24:32.197Z,99067.06
2022-10-13T00:26:58.671Z,99069.50
2022-10-13T00:29:25.217Z,99070.28
2022-10-13T00:31:51.635Z,99074.69
2022-10-13T00:34:18.151Z,99074.28
2022-10-13T00:36:44.609Z,99068.25
2022-10-13T00:39:11.035Z,99072.97
2022-10-13T00:41:37.530Z,99075.72
2022-10-13T00:44:07.198Z,99077.91
2022-10-13T00:46:35.947Z,99083.16
2022-10-13T00:49:08.033Z,99084.88
2022-10-13T00:51:40.615Z,99083.63
2022-10-13T00:54:11.451Z,99083.72
2022-10-13T00:56:38.885Z,99078.00
2022-10-13T00:59:13.686Z,99076.69
2022-10-13T01:01:40.271Z,99078.03
2022-10-13T01:04:06.801Z,99073.56
2022-10-13T01:06:34.064Z,99075.34
2022-10-13T01:09:00.514Z,99070.72
2022-10-13T01:11:48.139Z,99067.84
2022-10-13T01:14:49.359Z,99065.13
2022-10-13T01:17:25.402Z,99057.31
2022-10-13T01:20:10.889Z,99058.38
2022-10-13T01:22:49.540Z,99061.38
2022-10-13T01:25:24.545Z,99059.75
2022-10-13T01:28:04.313Z,99060.22
2022-10-13T01:30:37.720Z,99058.59
2022-10-13T01:33:34.033Z,99063.75
2022-10-13T01:36:18.852Z,99062.97
2022-10-13T01:38:55.195Z,99049.69
2022-10-13T01:41:37.553Z,99057.44
2022-10-13T01:44:43.231Z,99056.59
2022-10-13T01:47:12.098Z,99059.84
2022-10-13T01:49:39.175Z,99055.97
2022-10-13T01:52:11.205Z,99052.84
2022-10-13T01:54:37.713Z,99045.72
2022-10-13T01:57:04.300Z,99051.00
2022-10-13T01:59:36.293Z,99052.53
2022-10-13T02:02:25.214Z,99054.38
2022-10-13T02:04:56.348Z,99059.03
2022-10-13T02:08:09.002Z,99051.38
2022-10-13T02:10:41.368Z,99048.09
2022-10-13T02:13:11.744Z,99038.88
2022-10-13T02:15:42.646Z,99035.28
2022-10-13T02:18:12.952Z,99036.19
2022-10-13T02:20:42.412Z,99039.34
2022-10-13T02:23:13.527Z,99039.56
2022-10-13T02:25:41.368Z,99043.09
2022-10-13T02:28:09.253Z,99030.41
2022-10-13T02:30:35.965Z,99029.47
2022-10-13T02:33:03.076Z,99026.69
2022-10-13T02:35:29.990Z,99033.78
2022-10-13T02:37:56.849Z,99032.50
2022-10-13T02:40:23.292Z,99030.41
2022-10-13T02:42:49.782Z,99024.94
2022-10-13T02:45:16.559Z,99028.69
2022-10-13T02:47:43.044Z,99023.47
2022-10-13T02:50:09.708Z,99023.53
2022-10-13T02:52:36.346Z,99020.75
2022-10-13T02:55:03.017Z,99022.63
2022-10-13T02:57:29.535Z,99023.47
2022-10-13T02:59:56.008Z,99029.63
2022-10-13T03:02:23.280Z,99023.16
2022-10-13T03:04:50.804Z,99027.97
2022-10-13T03:07:17.353Z,99024.59
2022-10-13T03:09:43.982Z,99014.97
2022-10-13T03:12:10.607Z,99017.19
2022-10-13T03:14:37.330Z,99011.63
2022-10-13T03:17:03.826Z,99005.16
2022-10-13T03:19:30.618Z,99005.25
2022-10-13T03:21:57.047Z,99003.81
2022-10-13T03:24:23.582Z,99001.97
2022-10-13T03:26:50.027Z,99000.09
2022-10-13T03:29:20.782Z,99013.88
2022-10-13T03:31:47.227Z,99012.38
2022-10-13T03:34:16.346Z,99002.31
2022-10-13T03:36:42.908Z,99004.63
2022-10-13T03:39:09.454Z,99006.59
2022-10-13T03:41:35.910Z,99000.06
2022-10-13T03:44:02.475Z,98999.59
2022-10-13T03:46:30.438Z,98999.59
2022-10-13T03:48:57.194Z,99004.16
2022-10-13T03:51:23.863Z,98996.22
2022-10-13T03:53:52.075Z,99008.97
2022-10-13T03:56:24.399Z,99003.72
2022-10-13T03:58:54.531Z,98997.72
2022-10-13T04:01:23.133Z,98993.06
2022-10-13T04:03:51.919Z,98990.69
2022-10-13T04:06:18.392Z,98995.13
2022-10-13T04:08:44.899Z,98994.31
2022-10-13T04:11:14.305Z,98994.53
2022-10-13T04:13:42.162Z,98999.22
2022-10-13T04:16:14.643Z,98997.47
2022-10-13T04:18:44.630Z,99008.03
2022-10-13T04:21:14.593Z,99004.97
2022-10-13T04:23:41.162Z,99010.53
2022-10-13T04:26:14.117Z,99011.72
2022-10-13T04:28:40.674Z,99015.13
2022-10-13T04:31:07.310Z,99013.34
2022-10-13T04:33:33.889Z,99016.25
2022-10-13T04:36:04.248Z,99019.28
2022-10-13T04:38:30.731Z,99015.84
2022-10-13T04:40:57.185Z,99011.28
2022-10-13T04:43:23.642Z,99007.91
2022-10-13T04:45:50.082Z,99005.56
2022-10-13T04:48:16.613Z,98994.78
2022-10-13T04:50:43.056Z,98987.75
2022-10-13T04:53:09.530Z,98990.63
2022-10-13T04:55:37.166Z,98991.84
2022-10-13T04:58:03.657Z,98987.44
2022-10-13T05:00:30.230Z,98981.13
2022-10-13T05:02:56.713Z,98989.47
2022-10-13T05:05:23.170Z,98990.31
2022-10-13T05:07:49.820Z,98993.13
2022-10-13T05:10:16.350Z,98986.78
2022-10-13T05:12:42.805Z,98996.53
2022-10-13T05:15:09.783Z,98996.38
2022-10-13T05:17:36.336Z,98988.28
2022-10-13T05:20:03.192Z,98986.06
2022-10-13T05:22:29.786Z,98978.69
2022-10-13T05:24:56.274Z,98977.75
2022-10-13T05:27:23.280Z,98970.16
2022-10-13T05:29:49.723Z,98969.19
2022-10-13T05:32:16.305Z,98968.22
2022-10-13T05:34:42.904Z,98966.13
2022-10-13T05:37:09.351Z,98963.91
2022-10-13T05:39:35.877Z,98965.50
2022-10-13T05:42:02.349Z,98971.22
2022-10-13T05:44:28.903Z,98982.28
2022-10-13T05:46:56.332Z,98975.94
2022-10-13T05:49:22.881Z,98983.41
2022-10-13T05:51:53.386Z,98993.81
2022-10-13T05:54:24.681Z,98993.50
2022-10-13T05:56:56.643Z,98991.66
2022-10-13T05:59:27.311Z,98989.22
2022-10-13T06:01:54.499Z,98991.38
2022-10-13T06:04:25.675Z,98992.03
2022-10-13T06:06:52.737Z,98993.38
2022-10-13T06:09:19.460Z,98987.81
2022-10-13T06:11:46.333Z,98984.00
2022-10-13T06:14:12.823Z,98978.97
2022-10-13T06:16:39.534Z,98993.59
2022-10-13T06:19:06.320Z,98987.50
2022-10-13T06:21:35.656Z,98986.53
2022-10-13T06:24:02.500Z,98976.47
2022-10-13T06:26:28.916Z,98965.78
2022-10-13T06:28:59.259Z,98966.38
2022-10-13T06:31:26.151Z,98970.28
2022-10-13T06:33:52.618Z,98984.25
2022-10-13T06:36:19.159Z,98975.19
2022-10-13T06:38:45.811Z,98982.13
2022-10-13T06:41:14.199Z,98981.28
2022-10-13T06:43:41.201Z,98979.19
2022-10-13T06:46:08.327Z,98979.19
2022-10-13T06:48:34.880Z,98984.59
2022-10-13T06:51:02.906Z,98983.19
2022-10-13T06:53:29.522Z,98988.16
2022-10-13T06:55:58.278Z,98976.31
2022-10-13T06:58:24.906Z,98976.31
2022-10-13T07:00:51.616Z,98990.84
2022-10-13T07:03:18.133Z,98984.50
2022-10-13T07:05:44.573Z,98990.25
2022-10-13T07:08:11.014Z,98990.47
2022-10-13T07:10:38.858Z,98984.25
2022-10-13T07:13:05.353Z,98985.72
2022-10-13T07:15:31.859Z,98983.75
2022-10-13T07:17:58.534Z,98980.22
2022-10-13T07:20:25.497Z,98973.97
2022-10-13T07:22:55.129Z,98979.06
2022-10-13T07:25:21.593Z,98983.16
2022-10-13T07:27:48.042Z,98978.34
2022-10-13T07:30:14.620Z,98970.31
2022-10-13T07:32:42.220Z,98972.91
2022-10-13T07:35:10.439Z,98981.16
2022-10-13T07:37:37.565Z,98973.63
2022-10-13T07:40:06.004Z,98979.84
2022-10-13T07:42:32.924Z,98978.25
2022-10-13T07:44:59.498Z,98970.56
2022-10-13T07:47:26.058Z,98974.09
2022-10-13T07:49:54.601Z,98975.84
2022-10-13T07:52:21.753Z,98980.25
2022-10-13T07:54:48.534Z,98973.34
2022-10-13T07:57:15.334Z,98969.50
2022-10-13T07:59:41.785Z,98987.91
2022-10-13T08:02:09.926Z,98987.63
2022-10-13T08:04:36.429Z,98982.00
2022-10-13T08:07:05.543Z,98984.16
2022-10-13T08:09:32.357Z,98986.88
2022-10-13T08:12:00.774Z,98981.47
2022-10-13T08:14:29.041Z,98985.78
2022-10-13T08:16:56.016Z,98983.16
2022-10-13T08:19:22.631Z,98981.97
2022-10-13T08:21:58.108Z,98990.38
2022-10-13T08:24:26.340Z,98989.13
2022-10-13T08:26:52.813Z,98983.28
2022-10-13T08:29:23.744Z,98988.53
2022-10-13T08:31:52.204Z,98989.69
2022-10-13T08:34:29.159Z,98985.94
2022-10-13T08:36:56.676Z,98984.59
2022-10-13T08:39:24.336Z,98972.94
2022-10-13T08:41:51.002Z,98976.53
2022-10-13T08:47:30.013Z,98985.91
2022-10-13T08:50:00.773Z,98978.00
2022-10-13T08:52:42.152Z,98974.31
2022-10-13T08:55:17.985Z,98977.91
2022-10-13T08:57:44.648Z,98975.97
2022-10-13T09:00:13.298Z,98966.00
2022-10-13T09:02:42.993Z,98969.63
2022-10-13T09:05:17.468Z,98969.97
2022-10-13T09:07:45.967Z,98972.13
2022-10-13T09:10:15.430Z,98962.31
2022-10-13T09:12:42.008Z,98957.38
2022-10-13T09:15:11.372Z,98967.47
2022-10-13T09:17:40.719Z,98968.25
2022-10-13T09:20:19.859Z,98956.03
2022-10-13T09:23:04.258Z,98959.00
2022-10-13T09:25:43.282Z,98961.81
2022-10-13T09:28:17.165Z,98958.28
2022-10-13T09:30:46.865Z,98955.78
2022-10-13T09:33:13.427Z,98963.91
2022-10-13T09:35:44.920Z,98963.13
2022-10-13T09:38:20.754Z,98969.91
2022-10-13T09:41:04.707Z,98964.69
2022-10-13T09:43:47.559Z,98967.69
2022-10-13T09:46:24.261Z,98969.88
2022-10-13T09:48:53.667Z,98963.88
2022-10-13T09:51:34.671Z,98957.88
2022-10-13T09:54:01.701Z,98957.34
2022-10-13T09:56:43.510Z,98955.06
2022-10-13T09:59:39.026Z,98941.44
2022-10-13T10:02:31.764Z,98944.66
2022-10-13T10:05:05.585Z,98940.81
2022-10-13T10:07:33.076Z,98948.28
2022-10-13T10:10:15.990Z,98953.91
2022-10-13T10:12:44.324Z,98946.25
2022-10-13T10:15:23.421Z,98939.88
2022-10-13T10:17:58.665Z,98934.50
2022-10-13T10:20:46.213Z,98939.81
2022-10-13T10:23:36.987Z,98951.81
2022-10-13T10:26:20.740Z,98952.75
2022-10-13T10:29:08.670Z,98949.16
2022-10-13T10:31:55.600Z,98950.69
2022-10-13T10:34:37.076Z,98951.31
2022-10-13T10:37:36.421Z,98943.13
2022-10-13T10:40:03.511Z,98945.31
2022-10-13T10:42:35.957Z,98939.34
2022-10-13T10:45:12.934Z,98948.72
2022-10-13T10:47:45.911Z,98954.09
2022-10-13T10:50:18.559Z,98951.34
2022-10-13T10:52:47.784Z,98954.13
2022-10-13T10:55:19.361Z,98944.97
2022-10-13T10:57:51.500Z,98932.34
2022-10-13T11:00:22.316Z,98929.00
2022-10-13T11:03:06.420Z,98929.00
2022-10-13T11:05:57.718Z,98926.00
2022-10-13T11:08:42.436Z,98921.53
2022-10-13T11:11:29.242Z,98916.63
2022-10-13T11:14:00.501Z,98920.53
2022-10-13T11:16:36.049Z,98920.59
2022-10-13T11:19:08.503Z,98922.47
2022-10-13T11:21:59.134Z,98915.41
2022-10-13T11:24:50.896Z,98906.31
2022-10-13T11:27:41.621Z,98902.19
2022-10-13T11:30:41.499Z,98907.28
2022-10-13T11:33:32.820Z,98897.41
2022-10-13T11:36:39.555Z,98886.66
2022-10-13T11:39:27.849Z,98882.75
2022-10-13T11:42:17.036Z,98878.44
2022-10-13T11:45:06.649Z,98874.09
2022-10-13T11:48:04.230Z,98878.66
2022-10-13T11:51:08.820Z,98870.09
2022-10-13T11:54:21.574Z,98866.06
2022-10-13T11:56:56.858Z,98856.91
2022-10-13T11:59:37.661Z,98856.75
2022-10-13T12:02:25.009Z,98844.44
2022-10-13T12:05:05.212Z,98842.88
2022-10-13T12:07:37.424Z,98829.31
2022-10-13T12:10:07.374Z,98825.22
2022-10-13T12:12:34.098Z,98820.88
2022-10-13T12:15:04.152Z,98821.97
2022-10-13T12:17:41.219Z,98822.19
2022-10-13T12:20:23.292Z,98820.91
2022-10-13T12:22:51.309Z,98818.16
2022-10-13T12:25:30.019Z,98821.00
2022-10-13T12:27:59.678Z,98827.22
2022-10-13T12:30:32.149Z,98827.56
2022-10-13T12:33:00.742Z,98830.97
2022-10-13T12:35:30.026Z,98824.03
2022-10-13T12:37:58.080Z,98829.19
2022-10-13T12:40:25.299Z,98823.41
2022-10-13T12:42:52.096Z,98824.50
2022-10-13T12:45:21.788Z,98822.19
2022-10-13T12:47:51.853Z,98830.94
2022-10-13T12:50:30.183Z,98825.41
2022-10-13T12:53:24.184Z,98822.53
2022-10-13T12:55:53.433Z,98823.09
2022-10-13T12:58:30.226Z,98821.72
2022-10-13T13:01:03.509Z,98818.94
2022-10-13T13:03:30.548Z,98814.13
2022-10-13T13:06:10.761Z,98817.06
2022-10-13T13:08:39.945Z,98807.59
2022-10-13T13:11:18.490Z,98799.22
2022-10-13T13:13:45.066Z,98789.22
2022-10-13T13:16:20.553Z,98792.94
2022-10-13T13:18:49.382Z,98779.22
2022-10-13T13:21:18.289Z,98777.03
2022-10-13T13:23:51.222Z,98792.44
2022-10-13T13:26:22.448Z,98797.53
2022-10-13T13:28:51.661Z,98804.69
2022-10-13T13:31:19.773Z,98785.97
2022-10-13T13:33:47.069Z,98790.78
2022-10-13T13:36:17.118Z,98779.19
2022-10-13T13:38:44.117Z,98780.81
2022-10-13T13:41:11.767Z,98785.59
2022-10-13T13:43:39.135Z,98779.94
2022-10-13T13:46:07.359Z,98778.78
2022-10-13T13:48:34.010Z,98788.88
2022-10-13T13:51:00.570Z,98792.06
2022-10-13T13:53:27.022Z,98789.22
2022-10-13T13:55:53.542Z,98787.59
2022-10-13T13:58:20.754Z,98777.69
2022-10-13T14:00:47.534Z,98783.78
2022-10-13T14:03:19.161Z,98789.34
2022-10-13T14:05:45.869Z,98786.84
2022-10-13T14:08:12.335Z,98783.78
2022-10-13T14:10:41.788Z,98785.81
2022-10-13T14:13:08.252Z,98783.09
2022-10-13T14:15:34.793Z,98785.28
2022-10-13T14:18:01.255Z,98779.44
2022-10-13T14:20:27.762Z,98780.31
2022-10-13T14:22:54.268Z,98781.88
2022-10-13T14:25:20.746Z,98781.53
2022-10-13T14:27:47.188Z,98784.25
2022-10-13T14:30:14.355Z,98778.28
2022-10-13T14:32:40.906Z,98772.66
2022-10-13T14:35:07.849Z,98772.13
2022-10-13T14:37:34.737Z,98776.66
2022-10-13T14:40:01.917Z,98775.66
2022-10-13T14:42:28.408Z,98771.16
2022-10-13T14:44:55.018Z,98774.53
2022-10-13T14:47:21.948Z,98772.66
2022-10-13T14:49:48.636Z,98777.69
2022-10-13T14:52:15.054Z,98775.00
2022-10-13T14:54:44.876Z,98767.78
2022-10-13T14:57:15.691Z,98762.97
2022-10-13T14:59:43.592Z,98767.69
2022-10-13T15:02:13.831Z,98762.63
2022-10-13T15:04:40.299Z,98760.09
2022-10-13T15:07:06.765Z,98756.84
2022-10-13T15:09:45.278Z,98760.94
2022-10-13T15:12:20.168Z,98766.75
2022-10-13T15:14:46.732Z,98757.09
2022-10-13T15:17:13.247Z,98764.75
2022-10-13T15:19:39.654Z,98762.91
2022-10-13T15:22:06.292Z,98770.25
2022-10-13T15:24:32.730Z,98774.66
2022-10-13T15:26:59.158Z,98777.34
2022-10-13T15:29:25.686Z,98766.78
2022-10-13T15:31:52.147Z,98768.22
2022-10-13T15:34:18.567Z,98763.91
2022-10-13T15:36:45.247Z,98771.31
2022-10-13T15:39:11.743Z,98776.50
2022-10-13T15:41:38.172Z,98771.13
2022-10-13T15:44:04.669Z,98783.59
2022-10-13T15:46:31.570Z,98778.78
2022-10-13T15:48:59.884Z,98775.28
2022-10-13T15:51:27.093Z,98772.84
2022-10-13T15:53:55.131Z,98780.72
2022-10-13T15:56:21.574Z,98776.66
2022-10-13T15:58:48.030Z,98774.50
2022-10-13T16:01:14.916Z,98779.44
2022-10-13T16:03:42.004Z,98778.38
2022-10-13T16:06:10.740Z,98778.13
2022-10-13T16:08:39.551Z,98778.94
2022-10-13T16:11:15.787Z,98776.75
2022-10-13T16:13:46.395Z,98779.75
2022-10-13T16:16:12.972Z,98781.91
2022-10-13T16:18:40.482Z,98780.28
2022-10-13T16:21:15.795Z,98787.88
2022-10-13T16:23:45.065Z,98793.34
2022-10-13T16:26:11.619Z,98792.81
2022-10-13T16:28:38.690Z,98802.56
2022-10-13T16:31:13.946Z,98797.16
2022-10-13T16:33:41.469Z,98795.50
2022-10-13T16:36:11.051Z,98795.53
2022-10-13T16:38:37.905Z,98797.69
2022-10-13T16:41:09.885Z,98800.66
2022-10-13T16:43:36.402Z,98802.28
2022-10-13T16:46:04.805Z,98806.88
2022-10-13T16:48:32.279Z,98812.03
2022-10-13T16:51:00.779Z,98811.47
2022-10-13T16:53:27.215Z,98823.69
2022-10-13T16:55:53.692Z,98817.72
2022-10-13T16:58:20.129Z,98815.28
2022-10-13T17:00:46.808Z,98813.94
2022-10-13T17:03:13.363Z,98819.63
2022-10-13T17:05:39.796Z,98813.66
2022-10-13T17:08:06.356Z,98814.22
2022-10-13T17:10:34.558Z,98813.13
2022-10-13T17:13:01.513Z,98814.22
2022-10-13T17:15:27.989Z,98826.16
2022-10-13T17:17:54.518Z,98829.41
2022-10-13T17:20:20.965Z,98819.63
2022-10-13T17:22:47.437Z,98826.66
2022-10-13T17:25:13.951Z,98834.53
2022-10-13T17:27:40.499Z,98831.56
2022-10-13T17:30:07.431Z,98829.91
2022-10-13T17:32:38.654Z,98830.44
2022-10-13T17:35:06.228Z,98829.88
2022-10-13T17:37:32.736Z,98826.63
2022-10-13T17:39:59.154Z,98834.69
2022-10-13T17:42:25.625Z,98837.38
2022-10-13T17:44:52.060Z,98843.03
2022-10-13T17:47:18.823Z,98841.69
2022-10-13T17:52:11.997Z,98835.22
2022-10-13T17:54:38.413Z,98839.00
2022-10-13T17:57:05.559Z,98839.56
2022-10-13T17:59:32.167Z,98831.72
2022-10-13T18:01:58.685Z,98829.00
2022-10-13T18:04:25.165Z,98837.63
2022-10-13T18:06:51.576Z,98831.66
2022-10-13T18:09:20.688Z,98839.28
2022-10-13T18:11:51.579Z,98837.91
2022-10-13T18:14:22.947Z,98836.56
2022-10-13T18:16:50.823Z,98838.44
2022-10-13T18:19:17.613Z,98831.66
2022-10-13T18:21:44.218Z,98832.47
2022-10-13T18:24:11.765Z,98824.91
2022-10-13T18:26:38.609Z,98830.53
2022-10-13T18:29:06.903Z,98824.00
2022-10-13T18:31:35.518Z,98827.00
2022-10-13T18:34:04.856Z,98827.53
2022-10-13T18:36:35.280Z,98822.34
2022-10-13T18:39:10.812Z,98824.25
2022-10-13T18:41:37.942Z,98816.66
2022-10-13T18:44:05.108Z,98813.44
2022-10-13T18:46:35.656Z,98810.75
2022-10-13T18:49:03.151Z,98815.16
2022-10-13T18:51:35.593Z,98811.63
2022-10-13T18:54:02.815Z,98808.91
2022-10-13T18:56:30.780Z,98818.69
2022-10-13T18:58:59.977Z,98809.72
2022-10-13T19:01:29.594Z,98806.47
2022-10-13T19:03:56.927Z,98814.88
2022-10-13T19:06:27.017Z,98813.81
2022-10-13T19:08:58.634Z,98815.97
2022-10-13T19:11:25.394Z,98811.59
2022-10-13T19:13:52.411Z,98808.66
2022-10-13T19:16:21.541Z,98800.00
2022-10-13T19:18:49.445Z,98803.25
2022-10-13T19:21:16.698Z,98814.66
2022-10-13T19:23:43.471Z,98808.41
2022-10-13T19:26:16.141Z,98803.25
2022-10-13T19:28:43.750Z,98797.56
2022-10-13T19:31:15.942Z,98810.00
2022-10-13T19:33:44.722Z,98809.47
2022-10-13T19:36:19.355Z,98808.06
2022-10-13T19:38:45.959Z,98816.19
2022-10-13T19:41:12.416Z,98818.38
2022-10-13T19:43:38.900Z,98812.97
2022-10-13T19:46:07.594Z,98813.78
2022-10-13T19:48:34.485Z,98821.34
2022-10-13T19:51:03.869Z,98811.88
2022-10-13T19:53:30.358Z,98817.28
2022-10-13T19:55:56.873Z,98824.34
2022-10-13T19:58:23.787Z,98820.53
2022-10-13T20:00:50.311Z,98821.34
2022-10-13T20:03:16.832Z,98826.47
2022-10-13T20:05:43.877Z,98821.88
2022-10-13T20:08:11.892Z,98826.44
2022-10-13T20:10:40.272Z,98825.91
2022-10-13T20:13:07.290Z,98831.28
2022-10-13T20:15:33.898Z,98834.00
2022-10-13T20:18:00.597Z,98828.03
2022-10-13T20:20:27.485Z,98829.44
2022-10-13T20:22:53.971Z,98824.84
2022-10-13T20:25:20.512Z,98817.19
2022-10-13T20:27:47.479Z,98827.00
2022-10-13T20:30:14.438Z,98823.78
2022-10-13T20:32:41.168Z,98825.38
2022-10-13T20:35:08.100Z,98838.31
2022-10-13T20:37:34.862Z,98843.19
2022-10-13T20:40:01.672Z,98848.00
2022-10-13T20:42:28.345Z,98850.22
2022-10-13T20:44:55.084Z,98843.97
2022-10-13T20:47:21.814Z,98841.00
2022-10-13T20:49:48.555Z,98848.59
2022-10-13T20:52:15.091Z,98851.34
2022-10-13T20:54:41.610Z,98844.56
2022-10-13T20:57:08.120Z,98839.41
2022-10-13T20:59:34.606Z,98845.06
2022-10-13T21:02:01.067Z,98840.97
2022-10-13T21:04:27.675Z,98841.00
2022-10-13T21:06:54.178Z,98839.84
2022-10-13T21:09:20.912Z,98842.63
2022-10-13T21:11:47.379Z,98846.94
2022-10-13T21:14:13.861Z,98845.00
2022-10-13T21:16:40.486Z,98841.50
2022-10-13T21:19:07.397Z,98840.94
2022-10-13T21:21:34.778Z,98842.34
2022-10-13T21:24:05.094Z,98846.66
2022-10-13T21:26:32.740Z,98844.78
2022-10-13T21:29:00.737Z,98843.97
2022-10-13T21:31:31.295Z,98843.94
2022-10-13T21:33:57.999Z,98840.66
2022-10-13T21:36:30.140Z,98842.56
2022-10-13T21:38:59.791Z,98841.75
2022-10-13T21:41:27.311Z,98834.97
2022-10-13T21:43:54.609Z,98837.38
2022-10-13T21:46:28.111Z,98832.06
2022-10-13T21:48:59.447Z,98827.97
2022-10-13T21:51:29.605Z,98834.72
2022-10-13T21:53:58.833Z,98831.16
2022-10-13T21:56:26.417Z,98830.28
2022-10-13T21:58:53.880Z,98832.75
2022-10-13T22:01:20.935Z,98826.75
2022-10-13T22:03:48.557Z,98834.88
2022-10-13T22:06:18.979Z,98832.69
2022-10-13T22:08:48.922Z,98831.13
2022-10-13T22:11:16.391Z,98836.28
2022-10-13T22:13:43.127Z,98839.25
2022-10-13T22:16:18.692Z,98839.47
2022-10-13T22:18:46.390Z,98835.69
2022-10-13T22:21:19.100Z,98833.78
2022-10-13T22:23:46.291Z,98837.00
2022-10-13T22:26:14.813Z,98836.44
2022-10-13T22:28:41.586Z,98836.97
2022-10-13T22:31:12.799Z,98829.91
2022-10-13T22:33:41.141Z,98826.09
2022-10-13T22:36:17.501Z,98830.03
2022-10-13T22:38:45.277Z,98827.84
2022-10-13T22:41:14.643Z,98816.97
2022-10-13T22:43:44.136Z,98809.69
2022-10-13T22:46:12.326Z,98812.66
2022-10-13T22:48:40.909Z,98812.59
2022-10-13T22:51:08.135Z,98800.84
2022-10-13T22:53:34.733Z,98803.53
2022-10-13T22:56:05.410Z,98798.34
2022-10-13T22:58:31.941Z,98784.56
2022-10-13T23:01:04.703Z,98795.94
2022-10-13T23:03:31.261Z,98790.25
2022-10-13T23:05:57.750Z,98789.13
2022-10-13T23:08:24.282Z,98786.44
2022-10-13T23:10:50.800Z,98794.50
2022-10-13T23:13:17.410Z,98789.69
2022-10-13T23:15:43.844Z,98787.25
2022-10-13T23:18:10.320Z,98793.69
2022-10-13T23:20:43.385Z,98791.78
2022-10-13T23:23:10.078Z,98788.56
2022-10-13T23:25:37.514Z,98787.25
2022-10-13T23:28:04.690Z,98784.53
2022-10-13T23:30:31.178Z,98782.06
2022-10-13T23:32:57.655Z,98785.66
2022-10-13T23:35:24.226Z,98788.38
2022-10-13T23:37:52.626Z,98788.84
2022-10-13T23:40:19.260Z,98784.22
2022-10-13T23:42:45.836Z,98780.97
2022-10-13T23:45:12.322Z,98780.38
2022-10-13T23:47:38.863Z,98782.22
2022-10-13T23:50:05.859Z,98780.81
2022-10-13T23:52:32.331Z,98781.63
2022-10-13T23:54:58.823Z,98782.38
2022-10-13T23:57:25.349Z,98771.13
2022-10-13T23:59:51.930Z,98773.44
